createdAt,value
2017-11-25T00:01:45.419Z,93.96
2017-11-25T00:04:19.882Z,94.02
2017-11-25T00:06:55.883Z,94.30
2017-11-25T00:09:30.287Z,94.63
2017-11-25T00:12:05.031Z,94.77
2017-11-25T00:14:39.583Z,95.00
2017-11-25T00:17:14.167Z,95.04
2017-11-25T00:19:48.571Z,94.91
2017-11-25T00:22:22.983Z,94.46
2017-11-25T00:24:57.408Z,94.23
2017-11-25T00:27:31.976Z,94.18
2017-11-25T00:30:14.023Z,93.33
2017-11-25T00:32:48.334Z,93.46
2017-11-25T00:35:22.776Z,92.72
2017-11-25T00:37:57.439Z,92.65
2017-11-25T00:40:31.804Z,92.75
2017-11-25T00:43:06.351Z,92.83
2017-11-25T00:45:40.820Z,91.93
2017-11-25T00:48:15.343Z,92.05
2017-11-25T00:50:49.749Z,92.80
2017-11-25T00:53:24.283Z,93.24
2017-11-25T00:55:58.732Z,92.28
2017-11-25T00:58:33.259Z,91.91
2017-11-25T01:01:07.767Z,92.81
2017-11-25T01:03:42.201Z,93.27
2017-11-25T01:06:16.599Z,93.45
2017-11-25T01:08:51.002Z,93.50
2017-11-25T01:11:25.380Z,93.78
2017-11-25T01:13:59.971Z,94.07
2017-11-25T01:16:34.351Z,93.81
2017-11-25T01:19:09.143Z,93.51
2017-11-25T01:21:43.531Z,93.87
2017-11-25T01:24:18.004Z,93.44
2017-11-25T01:26:52.484Z,93.58
2017-11-25T01:29:27.054Z,93.44
2017-11-25T01:32:01.779Z,93.85
2017-11-25T01:34:36.191Z,93.58
2017-11-25T01:37:10.648Z,93.72
2017-11-25T01:39:45.063Z,93.60
2017-11-25T01:42:19.420Z,93.28
2017-11-25T01:44:53.999Z,93.48
2017-11-25T01:47:28.249Z,93.73
2017-11-25T01:52:42.688Z,94.22
2017-11-25T01:55:16.553Z,94.04
2017-11-25T01:57:50.888Z,93.90
2017-11-25T02:00:25.668Z,93.79
2017-11-25T02:03:00.088Z,94.10
2017-11-25T02:05:34.353Z,94.20
2017-11-25T02:08:08.712Z,94.30
2017-11-25T02:10:43.076Z,94.46
2017-11-25T02:13:17.562Z,94.46
2017-11-25T02:15:52.020Z,94.71
2017-11-25T02:18:26.598Z,94.69
2017-11-25T02:21:00.684Z,94.96
2017-11-25T02:23:35.203Z,94.67
2017-11-25T02:26:09.347Z,94.21
2017-11-25T02:28:43.478Z,93.67
2017-11-25T02:31:17.848Z,93.13
2017-11-25T02:33:52.821Z,93.38
2017-11-25T02:36:27.708Z,93.80
2017-11-25T02:39:01.947Z,93.72
2017-11-25T02:41:36.055Z,93.00
2017-11-25T02:44:10.624Z,92.82
2017-11-25T02:46:45.244Z,93.33
2017-11-25T02:49:19.421Z,93.66
2017-11-25T02:51:53.868Z,93.73
2017-11-25T02:54:28.086Z,93.17
2017-11-25T02:57:02.514Z,92.19
2017-11-25T02:59:36.741Z,92.22
2017-11-25T03:02:11.475Z,92.44
2017-11-25T03:04:45.987Z,92.02
2017-11-25T03:07:20.009Z,92.29
2017-11-25T03:09:54.615Z,92.79
2017-11-25T03:12:29.052Z,92.76
2017-11-25T03:17:42.815Z,92.42
2017-11-25T03:20:17.295Z,92.73
2017-11-25T03:22:51.799Z,92.80
2017-11-25T03:25:28.963Z,93.04
2017-11-25T03:28:03.947Z,93.77
2017-11-25T03:30:38.368Z,94.32
2017-11-25T03:33:12.843Z,93.56
2017-11-25T03:35:47.189Z,93.50
2017-11-25T03:38:21.673Z,93.79
2017-11-25T03:40:55.837Z,93.75
2017-11-25T03:43:30.319Z,93.74
2017-11-25T03:46:04.687Z,94.02
2017-11-25T03:48:39.031Z,94.16
2017-11-25T03:51:13.420Z,93.94
2017-11-25T03:53:47.655Z,94.02
2017-11-25T03:56:21.617Z,93.80
2017-11-25T03:58:56.232Z,93.34
2017-11-25T04:01:30.743Z,93.24
2017-11-25T04:04:05.264Z,93.64
2017-11-25T04:06:39.718Z,93.48
2017-11-25T04:09:14.257Z,92.91
2017-11-25T04:11:48.723Z,92.71
2017-11-25T04:14:23.185Z,93.12
2017-11-25T04:16:57.574Z,93.44
2017-11-25T04:19:32.215Z,93.61
2017-11-25T04:22:06.611Z,93.93
2017-11-25T04:24:41.085Z,94.09
2017-11-25T04:27:15.482Z,94.14
2017-11-25T04:29:50.135Z,94.09
2017-11-25T04:32:24.884Z,94.06
2017-11-25T04:34:59.399Z,93.03
2017-11-25T04:37:33.789Z,92.98
2017-11-25T04:40:13.859Z,93.39
2017-11-25T04:42:48.415Z,93.88
2017-11-25T04:45:23.438Z,94.07
2017-11-25T04:47:57.906Z,94.83
2017-11-25T04:50:32.092Z,95.05
2017-11-25T04:53:06.320Z,95.22
2017-11-25T04:55:40.719Z,94.95
2017-11-25T04:58:15.231Z,94.39
2017-11-25T05:00:49.165Z,94.84
2017-11-25T05:03:23.804Z,94.89
2017-11-25T05:05:58.259Z,95.19
2017-11-25T05:08:32.660Z,94.95
2017-11-25T05:11:07.178Z,95.34
2017-11-25T05:13:41.623Z,95.26
2017-11-25T05:16:16.107Z,95.62
2017-11-25T05:18:50.626Z,95.71
2017-11-25T05:21:25.103Z,95.61
2017-11-25T05:23:59.671Z,95.84
2017-11-25T05:26:33.925Z,96.24
2017-11-25T05:29:08.155Z,96.32
2017-11-25T05:31:42.922Z,96.16
2017-11-25T05:34:17.324Z,95.89
2017-11-25T05:36:52.120Z,95.99
2017-11-25T05:39:26.552Z,95.99
2017-11-25T05:42:01.437Z,96.43
2017-11-25T05:44:36.046Z,96.70
2017-11-25T05:47:10.459Z,96.91
2017-11-25T05:49:44.799Z,97.04
2017-11-25T05:52:19.219Z,97.09
2017-11-25T05:54:53.746Z,97.14
2017-11-25T05:57:28.188Z,96.86
2017-11-25T06:02:42.232Z,96.91
2017-11-25T06:05:16.908Z,96.83
2017-11-25T06:07:51.916Z,96.70
2017-11-25T06:10:26.369Z,96.88
2017-11-25T06:13:00.871Z,97.05
2017-11-25T06:15:35.847Z,97.36
2017-11-25T06:18:10.364Z,97.49
2017-11-25T06:20:45.647Z,97.62
2017-11-25T06:23:20.141Z,97.86
2017-11-25T06:25:54.315Z,97.92
2017-11-25T06:28:28.755Z,97.74
2017-11-25T06:31:03.193Z,97.66
2017-11-25T06:33:37.632Z,97.57
2017-11-25T06:36:12.032Z,97.46
2017-11-25T06:38:46.516Z,97.34
2017-11-25T06:41:21.707Z,97.13
2017-11-25T06:43:56.271Z,97.20
2017-11-25T06:46:30.667Z,97.47
2017-11-25T06:49:05.276Z,97.39
2017-11-25T06:51:40.124Z,97.51
2017-11-25T06:54:14.552Z,97.66
2017-11-25T06:56:48.999Z,97.65
2017-11-25T06:59:23.376Z,97.79
2017-11-25T07:01:57.779Z,97.67
2017-11-25T07:04:32.288Z,97.38
2017-11-25T07:07:06.674Z,97.50
2017-11-25T07:09:41.034Z,97.50
2017-11-25T07:12:15.438Z,97.77
2017-11-25T07:14:50.116Z,97.75
2017-11-25T07:17:24.615Z,97.78
2017-11-25T07:19:59.048Z,97.22
2017-11-25T07:22:33.479Z,97.03
2017-11-25T07:25:15.437Z,97.35
2017-11-25T07:27:50.492Z,97.35
2017-11-25T07:30:25.059Z,97.36
2017-11-25T07:32:59.548Z,97.41
2017-11-25T07:35:34.007Z,97.44
2017-11-25T07:38:08.369Z,97.39
2017-11-25T07:40:42.503Z,97.49
2017-11-25T07:43:16.957Z,97.60
2017-11-25T07:45:51.587Z,97.65
2017-11-25T07:48:26.106Z,97.64
2017-11-25T07:51:00.786Z,97.56
2017-11-25T07:53:35.632Z,97.71
2017-11-25T07:56:10.422Z,98.02
2017-11-25T07:58:45.020Z,97.74
2017-11-25T08:01:20.303Z,97.72
2017-11-25T08:03:54.720Z,97.77
2017-11-25T08:06:29.132Z,97.84
2017-11-25T08:09:03.176Z,97.77
2017-11-25T08:11:37.506Z,97.85
2017-11-25T08:14:12.187Z,98.14
2017-11-25T08:16:46.518Z,98.34
2017-11-25T08:19:20.895Z,98.41
2017-11-25T08:21:55.675Z,98.33
2017-11-25T08:24:30.051Z,98.24
2017-11-25T08:27:04.261Z,98.08
2017-11-25T08:29:38.907Z,98.20
2017-11-25T08:32:13.266Z,97.93
2017-11-25T08:34:48.396Z,97.90
2017-11-25T08:37:22.771Z,97.66
2017-11-25T08:39:57.328Z,97.65
2017-11-25T08:42:31.679Z,97.72
2017-11-25T08:45:13.881Z,97.93
2017-11-25T08:47:47.955Z,97.93
2017-11-25T08:50:22.695Z,97.83
2017-11-25T08:52:57.271Z,97.86
2017-11-25T08:55:31.775Z,98.21
2017-11-25T08:58:06.282Z,98.22
2017-11-25T09:00:41.264Z,98.38
2017-11-25T09:03:15.863Z,98.20
2017-11-25T09:05:50.232Z,98.18
2017-11-25T09:08:24.712Z,98.14
2017-11-25T09:10:59.082Z,98.22
2017-11-25T09:13:33.652Z,98.18
2017-11-25T09:16:08.120Z,98.54
2017-11-25T09:18:42.733Z,98.75
2017-11-25T09:21:17.160Z,98.66
2017-11-25T09:23:52.504Z,98.62
2017-11-25T09:26:27.013Z,98.59
2017-11-25T09:29:01.888Z,98.37
2017-11-25T09:31:36.065Z,98.40
2017-11-25T09:34:10.567Z,98.07
2017-11-25T09:36:45.031Z,98.06
2017-11-25T09:39:19.728Z,97.34
2017-11-25T09:41:55.329Z,97.12
2017-11-25T09:44:29.977Z,96.89
2017-11-25T09:47:03.979Z,96.88
2017-11-25T09:49:38.842Z,97.05
2017-11-25T09:52:14.348Z,97.03
2017-11-25T09:54:48.539Z,97.15
2017-11-25T09:57:25.639Z,96.78
2017-11-25T10:00:00.105Z,96.56
2017-11-25T10:02:35.688Z,96.01
2017-11-25T10:05:16.332Z,95.91
2017-11-25T10:07:50.745Z,95.83
2017-11-25T10:10:24.963Z,95.92
2017-11-25T10:12:59.569Z,95.99
2017-11-25T10:15:33.961Z,95.82
2017-11-25T10:18:08.568Z,95.33
2017-11-25T10:20:43.530Z,95.05
2017-11-25T10:23:19.838Z,94.82
2017-11-25T10:25:54.343Z,94.36
2017-11-25T10:28:28.825Z,94.61
2017-11-25T10:31:04.274Z,94.61
2017-11-25T10:33:38.775Z,94.69
2017-11-25T10:36:13.226Z,94.68
2017-11-25T10:38:47.940Z,94.31
2017-11-25T10:41:22.507Z,94.14
2017-11-25T10:43:57.568Z,94.07
2017-11-25T10:46:34.634Z,94.07
2017-11-25T10:49:09.268Z,94.15
2017-11-25T10:51:44.718Z,94.32
2017-11-25T10:54:19.394Z,94.29
2017-11-25T10:56:53.834Z,94.35
2017-11-25T10:59:28.554Z,94.15
2017-11-25T11:02:02.970Z,93.78
2017-11-25T11:04:37.472Z,94.00
2017-11-25T11:07:11.866Z,94.03
2017-11-25T11:09:46.308Z,93.76
2017-11-25T11:12:20.742Z,93.18
2017-11-25T11:14:55.496Z,92.95
2017-11-25T11:17:29.983Z,92.94
2017-11-25T11:20:10.048Z,92.89
2017-11-25T11:22:44.574Z,92.70
2017-11-25T11:25:19.007Z,91.84
2017-11-25T11:27:53.945Z,91.75
2017-11-25T11:30:28.663Z,90.59
2017-11-25T11:33:03.095Z,90.67
2017-11-25T11:35:37.494Z,90.12
2017-11-25T11:38:11.998Z,90.16
2017-11-25T11:40:46.746Z,89.75
2017-11-25T11:43:21.374Z,89.29
2017-11-25T11:45:55.764Z,87.68
2017-11-25T11:48:30.326Z,88.31
2017-11-25T11:51:04.719Z,86.92
2017-11-25T11:53:39.332Z,85.78
2017-11-25T11:56:13.892Z,86.46
2017-11-25T11:58:48.548Z,85.26
2017-11-25T12:01:22.767Z,85.89
2017-11-25T12:03:57.310Z,84.24
2017-11-25T12:06:31.516Z,84.27
2017-11-25T12:09:05.608Z,83.91
2017-11-25T12:11:39.891Z,84.08
2017-11-25T12:14:14.556Z,84.39
2017-11-25T12:16:49.017Z,85.73
2017-11-25T12:19:23.542Z,85.98
2017-11-25T12:21:57.928Z,86.20
2017-11-25T12:24:32.615Z,86.79
2017-11-25T12:27:07.019Z,87.23
2017-11-25T12:29:41.451Z,86.54
2017-11-25T12:32:15.909Z,87.00
2017-11-25T12:34:50.455Z,87.53
2017-11-25T12:37:24.838Z,87.57
2017-11-25T12:39:59.359Z,88.34
2017-11-25T12:42:33.558Z,88.69
2017-11-25T12:45:14.859Z,88.28
2017-11-25T12:47:49.307Z,88.00
2017-11-25T12:50:23.689Z,87.67
2017-11-25T12:52:58.167Z,87.09
2017-11-25T12:55:32.893Z,86.75
2017-11-25T12:58:12.928Z,86.34
2017-11-25T13:00:47.396Z,86.70
2017-11-25T13:03:21.885Z,87.05
2017-11-25T13:05:56.297Z,87.94
2017-11-25T13:08:30.779Z,88.32
2017-11-25T13:11:05.208Z,88.94
2017-11-25T13:13:40.731Z,89.38
2017-11-25T13:16:15.192Z,89.83
2017-11-25T13:18:50.513Z,90.16
2017-11-25T13:21:24.963Z,90.77
2017-11-25T13:23:59.564Z,91.25
2017-11-25T13:26:34.081Z,91.26
2017-11-25T13:29:10.160Z,91.47
2017-11-25T13:31:44.669Z,91.49
2017-11-25T13:34:20.012Z,91.85
2017-11-25T13:36:55.453Z,92.06
2017-11-25T13:39:29.952Z,91.59
2017-11-25T13:42:04.118Z,90.63
2017-11-25T13:44:38.622Z,91.13
2017-11-25T13:47:12.897Z,90.56
2017-11-25T13:49:47.484Z,90.91
2017-11-25T13:52:21.868Z,91.14
2017-11-25T13:54:57.009Z,91.26
2017-11-25T13:57:31.559Z,91.04
2017-11-25T14:00:13.957Z,91.17
2017-11-25T14:02:48.187Z,91.04
2017-11-25T14:05:22.716Z,90.86
2017-11-25T14:07:56.921Z,91.13
2017-11-25T14:10:32.021Z,91.10
2017-11-25T14:13:06.520Z,91.27
2017-11-25T14:15:41.089Z,91.28
2017-11-25T14:18:15.478Z,90.62
2017-11-25T14:20:50.639Z,89.80
2017-11-25T14:23:25.215Z,88.90
2017-11-25T14:25:59.580Z,87.51
2017-11-25T14:28:34.084Z,86.88
2017-11-25T14:31:09.378Z,86.32
2017-11-25T14:33:43.825Z,85.51
2017-11-25T14:36:18.333Z,85.26
2017-11-25T14:38:52.923Z,85.20
2017-11-25T14:41:27.331Z,85.35
2017-11-25T14:44:01.471Z,85.01
2017-11-25T14:46:35.512Z,85.13
2017-11-25T14:49:10.724Z,84.92
2017-11-25T14:51:45.323Z,84.65
2017-11-25T14:54:19.975Z,84.86
2017-11-25T14:56:54.359Z,84.19
2017-11-25T14:59:28.971Z,84.29
2017-11-25T15:02:02.991Z,83.90
2017-11-25T15:04:37.599Z,83.71
2017-11-25T15:07:12.040Z,83.51
2017-11-25T15:09:46.403Z,83.35
2017-11-25T15:12:20.907Z,82.83
2017-11-25T15:14:55.305Z,82.51
2017-11-25T15:17:29.807Z,82.17
2017-11-25T15:22:44.475Z,81.37
2017-11-25T15:25:18.684Z,80.64
2017-11-25T15:27:53.198Z,80.63
2017-11-25T15:30:27.535Z,79.85
2017-11-25T15:33:01.878Z,79.89
2017-11-25T15:35:36.072Z,79.28
2017-11-25T15:38:10.453Z,79.15
2017-11-25T15:40:44.871Z,79.26
2017-11-25T15:43:19.435Z,78.94
2017-11-25T15:45:53.544Z,78.77
2017-11-25T15:48:28.052Z,78.74
2017-11-25T15:51:02.281Z,78.68
2017-11-25T15:53:36.609Z,78.49
2017-11-25T15:56:10.563Z,78.56
2017-11-25T15:58:45.044Z,78.32
2017-11-25T16:01:19.441Z,77.75
2017-11-25T16:03:54.361Z,77.78
2017-11-25T16:06:29.376Z,77.31
2017-11-25T16:09:03.374Z,77.49
2017-11-25T16:11:37.893Z,77.49
2017-11-25T16:14:12.525Z,77.48
2017-11-25T16:16:46.891Z,77.62
2017-11-25T16:19:21.171Z,77.73
2017-11-25T16:21:55.599Z,77.74
2017-11-25T16:24:30.069Z,77.77
2017-11-25T16:27:04.512Z,77.96
2017-11-25T16:29:39.020Z,77.48
2017-11-25T16:32:13.772Z,77.50
2017-11-25T16:34:48.264Z,77.32
2017-11-25T16:37:23.540Z,77.30
2017-11-25T16:39:58.095Z,77.48
2017-11-25T16:42:32.683Z,77.48
2017-11-25T16:45:07.411Z,77.50
2017-11-25T16:47:41.831Z,77.77
2017-11-25T16:50:17.392Z,77.54
2017-11-25T16:52:51.769Z,77.24
2017-11-25T16:55:26.164Z,77.35
2017-11-25T16:58:00.767Z,77.34
2017-11-25T17:00:35.132Z,76.86
2017-11-25T17:03:11.231Z,77.50
2017-11-25T17:05:45.579Z,77.36
2017-11-25T17:08:20.055Z,77.52
2017-11-25T17:10:54.423Z,77.76
2017-11-25T17:13:29.024Z,77.96
2017-11-25T17:16:03.421Z,77.95
2017-11-25T17:18:37.867Z,77.95
2017-11-25T17:21:12.240Z,77.74
2017-11-25T17:23:46.724Z,77.63
2017-11-25T17:26:21.123Z,77.74
2017-11-25T17:28:55.628Z,77.84
2017-11-25T17:31:30.063Z,77.93
2017-11-25T17:34:04.568Z,78.07
2017-11-25T17:36:39.187Z,77.99
2017-11-25T17:39:13.673Z,77.75
2017-11-25T17:41:48.072Z,77.19
2017-11-25T17:44:22.582Z,76.52
2017-11-25T17:46:57.042Z,76.22
2017-11-25T17:49:32.217Z,76.42
2017-11-25T17:52:06.676Z,75.79
2017-11-25T17:54:41.275Z,75.88
2017-11-25T17:57:15.705Z,75.97
2017-11-25T17:59:50.496Z,75.87
2017-11-25T18:02:24.854Z,75.94
2017-11-25T18:04:59.310Z,75.91
2017-11-25T18:07:34.137Z,76.08
2017-11-25T18:10:11.113Z,76.00
2017-11-25T18:12:45.677Z,76.22
2017-11-25T18:15:20.516Z,76.15
2017-11-25T18:17:55.025Z,76.12
2017-11-25T18:20:29.446Z,76.41
2017-11-25T18:23:03.956Z,76.71
2017-11-25T18:25:38.356Z,76.91
2017-11-25T18:28:12.620Z,76.90
2017-11-25T18:30:57.326Z,77.19
2017-11-25T18:33:31.791Z,77.47
2017-11-25T18:36:06.492Z,77.55
2017-11-25T18:38:41.134Z,77.71
2017-11-25T18:41:15.513Z,77.61
2017-11-25T18:43:50.093Z,77.65
2017-11-25T18:46:24.460Z,77.64
2017-11-25T18:48:59.032Z,77.66
2017-11-25T18:51:33.752Z,77.53
2017-11-25T18:54:08.338Z,77.73
2017-11-25T18:56:43.928Z,77.84
2017-11-25T18:59:18.359Z,77.65
2017-11-25T19:01:53.846Z,77.26
2017-11-25T19:04:28.473Z,77.42
2017-11-25T19:07:05.698Z,77.15
2017-11-25T19:09:40.258Z,77.22
2017-11-25T19:12:14.665Z,77.16
2017-11-25T19:14:49.042Z,76.88
2017-11-25T19:17:23.410Z,76.86
2017-11-25T19:19:57.787Z,76.81
2017-11-25T19:22:32.549Z,77.13
2017-11-25T19:25:14.245Z,77.21
2017-11-25T19:27:48.986Z,76.82
2017-11-25T19:30:23.387Z,76.88
2017-11-25T19:32:57.942Z,76.72
2017-11-25T19:35:32.384Z,76.54
2017-11-25T19:38:06.903Z,76.52
2017-11-25T19:40:41.095Z,76.08
2017-11-25T19:43:15.624Z,75.84
2017-11-25T19:45:49.981Z,75.56
2017-11-25T19:48:24.660Z,75.50
2017-11-25T19:50:59.098Z,75.22
2017-11-25T19:53:33.605Z,75.26
2017-11-25T19:56:08.493Z,75.02
2017-11-25T19:58:42.971Z,75.00
2017-11-25T20:01:17.840Z,75.07
2017-11-25T20:03:52.348Z,75.16
2017-11-25T20:06:26.805Z,75.11
2017-11-25T20:09:01.388Z,75.22
2017-11-25T20:11:35.777Z,75.15
2017-11-25T20:14:10.264Z,75.35
2017-11-25T20:16:44.668Z,75.16
2017-11-25T20:19:19.167Z,75.27
2017-11-25T20:21:53.642Z,75.13
2017-11-25T20:24:29.097Z,75.07
2017-11-25T20:27:03.456Z,75.10
2017-11-25T20:29:37.972Z,75.05
2017-11-25T20:32:12.420Z,75.00
2017-11-25T20:34:46.939Z,75.11
2017-11-25T20:37:21.403Z,75.13
2017-11-25T20:39:55.762Z,74.83
2017-11-25T20:42:30.138Z,74.94
2017-11-25T20:45:13.635Z,74.27
2017-11-25T20:47:48.793Z,73.80
2017-11-25T20:50:23.356Z,73.89
2017-11-25T20:52:57.720Z,73.82
2017-11-25T20:55:32.194Z,73.88
2017-11-25T20:58:06.863Z,73.54
2017-11-25T21:00:41.483Z,73.65
2017-11-25T21:03:15.985Z,73.59
2017-11-25T21:05:50.503Z,73.67
2017-11-25T21:08:24.931Z,73.43
2017-11-25T21:10:59.403Z,73.64
2017-11-25T21:13:33.883Z,73.89
2017-11-25T21:16:09.358Z,73.94
2017-11-25T21:18:45.661Z,73.71
2017-11-25T21:21:20.282Z,73.92
2017-11-25T21:23:54.659Z,73.97
2017-11-25T21:26:29.141Z,73.91
2017-11-25T21:29:03.300Z,73.86
2017-11-25T21:31:38.381Z,73.83
2017-11-25T21:34:13.169Z,73.88
2017-11-25T21:36:47.592Z,73.93
2017-11-25T21:39:22.203Z,74.11
2017-11-25T21:41:56.603Z,74.19
2017-11-25T21:44:31.015Z,74.52
2017-11-25T21:47:05.697Z,74.80
2017-11-25T21:49:40.939Z,74.94
2017-11-25T21:52:15.333Z,74.92
2017-11-25T21:54:49.824Z,74.76
2017-11-25T21:57:24.254Z,74.30
2017-11-25T21:59:58.769Z,74.46
2017-11-25T22:02:33.535Z,74.26
2017-11-25T22:05:14.524Z,74.17
2017-11-25T22:07:48.947Z,74.40
2017-11-25T22:10:23.423Z,74.52
2017-11-25T22:12:58.012Z,74.73
2017-11-25T22:15:32.832Z,74.91
2017-11-25T22:18:09.194Z,75.14
2017-11-25T22:20:43.853Z,75.09
2017-11-25T22:23:18.635Z,75.08
2017-11-25T22:25:53.024Z,74.71
2017-11-25T22:28:28.668Z,74.22
2017-11-25T22:31:03.055Z,74.19
2017-11-25T22:33:37.361Z,74.23
2017-11-25T22:36:11.720Z,74.00
2017-11-25T22:38:46.111Z,74.05
2017-11-25T22:41:21.211Z,73.88
2017-11-25T22:43:55.725Z,74.14
2017-11-25T22:46:30.247Z,73.82
2017-11-25T22:49:04.655Z,73.81
2017-11-25T22:51:39.751Z,73.64
2017-11-25T22:54:14.141Z,73.96
2017-11-25T22:56:48.605Z,73.88
2017-11-25T22:59:23.140Z,73.81
2017-11-25T23:01:57.496Z,73.84
2017-11-25T23:04:32.040Z,73.97
2017-11-25T23:07:06.608Z,73.68
2017-11-25T23:09:40.976Z,73.78
2017-11-25T23:12:15.360Z,74.14
2017-11-25T23:14:49.883Z,73.80
2017-11-25T23:17:24.351Z,74.18
2017-11-25T23:22:44.490Z,74.30
2017-11-25T23:25:18.868Z,74.07
2017-11-25T23:27:53.631Z,73.85
2017-11-25T23:30:28.189Z,73.94
2017-11-25T23:33:02.656Z,73.81
2017-11-25T23:35:37.012Z,73.93
2017-11-25T23:38:11.592Z,74.07
2017-11-25T23:40:45.976Z,74.05
2017-11-25T23:43:20.505Z,74.20
2017-11-25T23:45:55.096Z,74.51
2017-11-25T23:48:29.567Z,74.52
2017-11-25T23:51:03.951Z,74.62
2017-11-25T23:53:38.424Z,74.86
2017-11-25T23:56:12.868Z,75.00
2017-11-25T23:58:47.336Z,75.03
